Time;durP1;ratioP1;P1;durP2;ratioP2;P2;SDS_P1;SDS_P2;PMS_P1;PMS_P2;Temp;Humidity;BMP_temperature;BMP_pressure;BME280_temperature;BME280_humidity;BME280_pressure;Samples;Min_cycle;Max_cycle;Signal;HPM_P1;HPM_P2
2022/01/31 00:00:33;;;;;;;17.25;5.50;;;;;;;3.84;84.94;101569.47;5053198;28;20094;-36
2022/01/31 00:02:59;;;;;;;17.37;5.60;;;;;;;3.85;84.90;101548.91;5053121;28;20119;-36
2022/01/31 00:05:24;;;;;;;12.10;5.57;;;;;;;3.77;84.90;101508.81;5052563;28;20104;-36
2022/01/31 00:07:50;;;;;;;19.93;5.57;;;;;;;3.85;85.58;101509.63;5052603;28;20031;-36
2022/01/31 00:10:21;;;;;;;16.37;5.43;;;;;;;3.78;85.62;101489.91;5054216;28;20025;-36
2022/01/31 00:13:05;;;;;;;17.65;5.78;;;;;;;3.76;85.27;101494.63;5056463;28;20123;-36
2022/01/31 00:15:31;;;;;;;18.42;6.15;;;;;;;3.80;85.70;101509.28;5056475;28;20028;-36
2022/01/31 00:17:56;;;;;;;;;;;;;;;3.85;86.09;101498.91;5056548;28;20481;-36
2022/01/31 00:20:22;;;;;;;16.33;5.28;;;;;;;3.84;85.71;101497.25;5056911;28;20063;-36
2022/01/31 00:22:47;;;;;;;16.47;5.27;;;;;;;3.86;85.53;101475.69;5056320;28;20078;-36
2022/01/31 00:25:13;;;;;;;14.37;4.83;;;;;;;3.87;85.88;101472.00;5056595;28;20037;-36
2022/01/31 00:27:39;;;;;;;21.08;5.50;;;;;;;3.82;86.19;101443.09;5056257;28;20029;-36
2022/01/31 00:30:05;;;;;;;19.13;6.03;;;;;;;3.90;86.98;101446.72;5056363;28;20533;-36
2022/01/31 00:32:31;;;;;;;15.20;5.30;;;;;;;3.88;87.32;101434.38;5056010;28;20024;-36
2022/01/31 00:34:58;;;;;;;19.17;5.63;;;;;;;3.81;87.89;101411.16;5056500;28;20029;-36
2022/01/31 00:37:23;;;;;;;24.10;6.47;;;;;;;3.89;87.45;101416.47;5056581;28;20049;-36
2022/01/31 00:39:49;;;;;;;17.35;5.35;;;;;;;3.85;88.42;101391.06;5056271;28;20488;-36
2022/01/31 00:42:15;;;;;;;17.80;6.30;;;;;;;3.94;87.57;101390.03;5055995;28;20040;-36
2022/01/31 00:44:50;;;;;;;16.83;5.23;;;;;;;3.92;88.47;101367.97;5056811;28;20029;-36
2022/01/31 00:47:19;;;;;;;22.23;5.65;;;;;;;3.97;88.31;101368.28;5056035;28;20029;-36
2022/01/31 00:52:28;;;;;;;17.48;5.78;;;;;;;3.90;91.86;101350.41;5056266;28;20037;-35
2022/01/31 00:54:54;;;;;;;22.10;6.60;;;;;;;3.86;93.09;101334.72;5056694;28;20029;-34
2022/01/31 00:57:19;;;;;;;21.70;5.33;;;;;;;3.83;94.35;101336.91;5056088;28;20483;-35
2022/01/31 00:59:44;;;;;;;20.40;5.27;;;;;;;3.78;95.25;101332.06;5055467;28;20420;-35
2022/01/31 01:02:10;;;;;;;18.33;6.10;;;;;;;3.73;94.82;101307.69;5055740;28;20039;-35
2022/01/31 01:04:35;;;;;;;24.33;6.17;;;;;;;3.78;95.13;101289.28;5056439;28;20105;-34
2022/01/31 01:07:01;;;;;;;15.50;5.50;;;;;;;3.80;95.50;101300.63;5055756;28;20025;-34
2022/01/31 01:09:26;;;;;;;19.85;5.07;;;;;;;3.81;96.48;101294.28;5055770;28;20029;-35
2022/01/31 01:11:51;;;;;;;18.13;6.00;;;;;;;3.79;96.63;101287.44;5055145;28;20029;-35
2022/01/31 01:14:17;;;;;;;18.23;6.67;;;;;;;3.77;97.76;101276.09;5056037;28;20021;-35
2022/01/31 01:16:42;;;;;;;23.43;6.23;;;;;;;3.66;99.10;101253.25;5055713;28;20124;-35
2022/01/31 01:19:07;;;;;;;18.17;6.03;;;;;;;3.70;99.69;101253.69;5055975;28;20020;-36
2022/01/31 01:21:33;;;;;;;18.27;5.83;;;;;;;3.70;99.82;101235.81;5054637;28;20036;-36
2022/01/31 01:23:58;;;;;;;24.00;6.17;;;;;;;3.64;100.00;101233.00;5055731;28;20086;-36
2022/01/31 01:26:24;;;;;;;16.90;5.53;;;;;;;3.68;100.00;101224.47;5055598;28;20029;-36
2022/01/31 01:28:49;;;;;;;21.07;6.30;;;;;;;3.68;100.00;101205.75;5055288;28;20484;-36
2022/01/31 01:31:15;;;;;;;20.37;6.57;;;;;;;3.70;100.00;101205.56;5055162;28;20056;-36
2022/01/31 01:33:41;;;;;;;20.33;6.55;;;;;;;3.63;100.00;101180.53;5055687;28;20092;-35
2022/01/31 01:36:07;;;;;;;;;;;;;;;3.74;100.00;101190.81;5055923;28;20045;-36
2022/01/31 01:38:33;;;;;;;16.02;5.90;;;;;;;3.72;100.00;101185.66;5055014;28;20015;-36
2022/01/31 01:40:59;;;;;;;15.90;5.80;;;;;;;3.76;100.00;101178.94;5055426;28;20112;-36
2022/01/31 01:43:26;;;;;;;19.33;6.00;;;;;;;3.78;100.00;101165.38;5054959;28;20021;-36
2022/01/31 01:45:53;;;;;;;20.30;6.43;;;;;;;3.77;100.00;101148.50;5055459;28;20032;-34
2022/01/31 01:48:20;;;;;;;18.42;5.85;;;;;;;3.79;100.00;101138.44;5054887;28;20025;-36
2022/01/31 01:50:46;;;;;;;21.30;6.72;;;;;;;3.79;100.00;101127.75;5054882;28;20036;-36
2022/01/31 01:53:14;;;;;;;;;;;;;;;3.81;100.00;101111.53;5055257;28;20522;-36
2022/01/31 01:55:42;;;;;;;19.15;6.65;;;;;;;3.81;100.00;101107.03;5054848;28;19952;-36
2022/01/31 01:58:14;;;;;;;19.67;7.63;;;;;;;3.81;100.00;101096.31;5054669;28;20128;-36
2022/01/31 02:03:36;;;;;;;20.70;6.00;;;;;;;3.83;100.00;101067.53;5052739;28;20037;-36
2022/01/31 02:06:03;;;;;;;20.20;7.05;;;;;;;3.86;100.00;101067.19;5052487;28;20029;-36
2022/01/31 02:08:39;;;;;;;18.60;7.05;;;;;;;3.80;100.00;101054.50;5052187;28;20101;-36
2022/01/31 02:11:06;;;;;;;19.45;6.40;;;;;;;3.90;100.00;101058.78;5052189;28;20032;-36
2022/01/31 02:13:31;;;;;;;23.20;7.00;;;;;;;3.91;100.00;101058.59;5052610;28;20037;-36
2022/01/31 02:15:56;;;;;;;19.60;8.27;;;;;;;3.92;100.00;101056.75;5052207;28;20107;-36
2022/01/31 02:18:26;;;;;;;20.13;6.43;;;;;;;3.95;100.00;101040.31;5051930;28;20033;-36
2022/01/31 02:20:51;;;;;;;22.35;7.70;;;;;;;3.91;100.00;101039.06;5052294;28;20267;-36
2022/01/31 02:23:17;;;;;;;15.17;6.97;;;;;;;3.96;100.00;101036.66;5051823;28;20033;-36
2022/01/31 02:25:57;;;;;;;22.02;7.65;;;;;;;3.94;100.00;101036.00;5051817;28;20033;-36
2022/01/31 02:28:26;;;;;;;16.98;8.55;;;;;;;3.96;100.00;101034.81;5051742;28;20060;-36
2022/01/31 02:30:52;;;;;;;22.77;6.80;;;;;;;3.96;100.00;101033.97;5051734;28;20431;-36
2022/01/31 02:33:19;;;;;;;17.30;7.38;;;;;;;4.07;100.00;101030.84;5051710;28;20057;-36
2022/01/31 02:35:46;;;;;;;14.35;6.75;;;;;;;4.02;100.00;101004.63;5051236;28;20065;-36
2022/01/31 02:38:11;;;;;;;21.15;6.97;;;;;;;4.13;100.00;101019.41;5051436;28;20454;-36
2022/01/31 02:40:36;;;;;;;15.50;6.13;;;;;;;4.11;100.00;100989.31;5053751;28;20196;-34
2022/01/31 02:43:02;;;;;;;13.10;5.53;;;;;;;4.23;100.00;101013.75;5053886;28;20025;-34
2022/01/31 02:45:28;;;;;;;11.25;5.00;;;;;;;4.27;100.00;101005.19;5053958;28;20108;-34
2022/01/31 02:47:56;;;;;;;10.03;4.77;;;;;;;4.24;100.00;100984.13;5053560;28;20068;-34
2022/01/31 02:50:22;;;;;;;8.27;4.15;;;;;;;4.34;100.00;100990.06;5054303;28;20111;-34
2022/01/31 02:52:56;;;;;;;13.30;4.87;;;;;;;4.34;100.00;100974.00;5053219;28;20100;-35
2022/01/31 02:55:21;;;;;;;9.73;5.03;;;;;;;4.45;100.00;100963.81;5053752;28;20032;-36
2022/01/31 02:57:47;;;;;;;9.27;4.77;;;;;;;4.45;100.00;100964.63;5053472;28;20445;-36
2022/01/31 03:00:13;;;;;;;10.83;5.00;;;;;;;4.42;100.00;100948.09;5053696;28;20028;-34
2022/01/31 03:02:38;;;;;;;9.25;4.45;;;;;;;4.53;100.00;100951.13;5053528;28;20496;-34
2022/01/31 03:05:04;;;;;;;11.30;4.77;;;;;;;4.55;100.00;100961.66;5053630;28;20029;-34
2022/01/31 03:07:30;;;;;;;9.23;4.68;;;;;;;4.56;100.00;100953.44;5053781;28;20078;-34
2022/01/31 03:09:55;;;;;;;9.50;5.18;;;;;;;4.63;100.00;100950.81;5053060;28;20033;-34
2022/01/31 03:12:22;;;;;;;11.85;4.72;;;;;;;4.59;100.00;100944.19;5052191;28;20033;-34
2022/01/31 03:14:47;;;;;;;14.00;4.78;;;;;;;4.75;100.00;100962.69;5053953;28;20029;-34
2022/01/31 03:17:13;;;;;;;20.02;5.03;;;;;;;4.82;100.00;100949.38;5052973;28;20085;-34
2022/01/31 03:19:40;;;;;;;14.87;5.30;;;;;;;4.86;100.00;100938.06;5052914;28;20037;-34
2022/01/31 03:22:06;;;;;;;14.20;5.07;;;;;;;4.91;100.00;100937.50;5053818;28;20036;-34
2022/01/31 03:24:31;;;;;;;;;;;;;;;4.95;100.00;100929.91;5053791;28;20082;-34
2022/01/31 03:26:57;;;;;;;18.42;4.13;;;;;;;5.00;100.00;100935.53;5053008;28;19995;-34
2022/01/31 03:29:22;;;;;;;15.95;4.03;;;;;;;5.03;100.00;100933.31;5053030;28;20380;-34
2022/01/31 03:31:48;;;;;;;17.77;4.10;;;;;;;5.00;100.00;100930.16;5052974;28;20075;-34
2022/01/31 03:34:13;;;;;;;17.47;4.47;;;;;;;5.08;100.00;100932.72;5052931;28;20029;-34
2022/01/31 03:36:38;;;;;;;12.03;3.53;;;;;;;5.08;100.00;100930.06;5053678;28;20052;-34
2022/01/31 03:39:04;;;;;;;14.77;3.70;;;;;;;5.05;100.00;100914.34;5052955;28;20393;-34
2022/01/31 03:41:30;;;;;;;20.45;3.78;;;;;;;5.11;100.00;100906.34;5052648;28;20086;-34
2022/01/31 03:43:55;;;;;;;16.87;3.90;;;;;;;5.10;100.00;100901.19;5052858;28;20033;-33
2022/01/31 03:46:21;;;;;;;14.47;3.30;;;;;;;5.22;100.00;100918.41;5052655;28;20021;-34
2022/01/31 03:48:46;;;;;;;15.93;3.25;;;;;;;5.18;100.00;100902.91;5052495;28;20021;-34
2022/01/31 03:51:12;;;;;;;12.10;2.93;;;;;;;5.27;100.00;100905.25;5053004;28;20021;-35
2022/01/31 03:53:38;;;;;;;18.85;3.80;;;;;;;5.14;100.00;100889.88;5052437;28;20033;-35
2022/01/31 03:56:03;;;;;;;18.07;3.20;;;;;;;5.31;100.00;100919.09;5053254;28;20028;-35
2022/01/31 03:58:29;;;;;;;17.30;4.30;;;;;;;5.27;100.00;100899.91;5052497;28;20471;-35
2022/01/31 04:00:54;;;;;;;17.60;3.27;;;;;;;5.29;100.00;100905.06;5052721;28;20720;-35
2022/01/31 04:03:20;;;;;;;18.47;3.37;;;;;;;5.38;100.00;100918.13;5052593;28;20426;-35
2022/01/31 04:05:45;;;;;;;13.77;3.20;;;;;;;5.38;100.00;100915.44;5053160;28;20070;-35
2022/01/31 04:08:12;;;;;;;11.67;3.27;;;;;;;5.40;100.00;100912.56;5052688;28;20450;-35
2022/01/31 04:10:38;;;;;;;18.23;3.65;;;;;;;5.39;100.00;100901.00;5052693;28;20025;-35
2022/01/31 04:13:06;;;;;;;18.23;3.22;;;;;;;5.42;100.00;100903.31;5052528;28;20032;-35
2022/01/31 04:15:34;;;;;;;17.80;3.60;;;;;;;5.43;100.00;100896.91;5053621;28;20032;-35
2022/01/31 04:17:59;;;;;;;15.15;2.92;;;;;;;5.44;100.00;100900.41;5052737;28;20135;-35
2022/01/31 04:20:24;;;;;;;9.73;2.63;;;;;;;5.44;100.00;100900.41;5052500;28;20120;-35
2022/01/31 04:22:58;;;;;;;13.60;3.10;;;;;;;5.46;99.42;100898.34;5052531;28;20040;-35
2022/01/31 04:28:17;;;;;;;14.20;2.83;;;;;;;5.47;99.02;100883.94;5052964;28;20129;-35
2022/01/31 04:30:50;;;;;;;21.42;3.65;;;;;;;5.48;97.97;100868.69;5052657;28;20380;-35
2022/01/31 04:33:15;;;;;;;14.95;3.40;;;;;;;5.45;97.92;100877.09;5052863;28;20029;-35
2022/01/31 04:35:40;;;;;;;20.43;3.23;;;;;;;5.47;97.24;100877.75;5052046;28;20083;-35
2022/01/31 04:38:06;;;;;;;19.07;3.10;;;;;;;5.37;97.12;100867.38;5052437;28;20473;-35
2022/01/31 04:40:31;;;;;;;16.40;3.03;;;;;;;5.46;96.36;100879.56;5052643;28;20017;-35
2022/01/31 04:42:56;;;;;;;14.73;2.43;;;;;;;5.48;95.90;100884.78;5052052;28;20027;-35
2022/01/31 04:45:22;;;;;;;19.33;4.40;;;;;;;5.46;94.97;100881.44;5052633;28;20104;-35
2022/01/31 04:47:47;;;;;;;10.53;2.77;;;;;;;5.45;96.25;100890.50;5052278;28;20039;-35
2022/01/31 04:50:12;;;;;;;16.53;3.13;;;;;;;5.39;95.36;100884.91;5052299;28;20465;-35
2022/01/31 04:52:41;;;;;;;14.30;3.03;;;;;;;5.41;95.02;100885.53;5052216;28;20033;-35
2022/01/31 04:55:07;;;;;;;10.55;2.00;;;;;;;5.39;94.22;100890.28;5052734;28;20318;-35
2022/01/31 04:57:32;;;;;;;15.98;2.85;;;;;;;5.40;94.04;100888.41;5053291;28;20116;-35
2022/01/31 04:59:58;;;;;;;13.17;2.57;;;;;;;5.41;92.97;100885.53;5055579;28;20388;-35
2022/01/31 05:02:24;;;;;;;16.73;3.10;;;;;;;5.39;93.33;100876.88;5056087;28;20124;-35
2022/01/31 05:04:50;;;;;;;16.98;2.72;;;;;;;5.38;93.51;100867.16;5055702;28;20032;-35
2022/01/31 05:07:15;;;;;;;15.43;3.10;;;;;;;5.41;92.20;100874.81;5055629;28;20025;-35
2022/01/31 05:09:41;;;;;;;12.13;2.47;;;;;;;5.40;92.43;100866.97;5055636;28;20025;-35
2022/01/31 05:12:07;;;;;;;11.50;2.70;;;;;;;5.30;91.48;100851.22;5055988;28;20033;-34
2022/01/31 05:14:32;;;;;;;11.80;2.65;;;;;;;5.42;90.66;100856.88;5055761;28;20599;-35
2022/01/31 05:16:58;;;;;;;15.47;3.07;;;;;;;5.31;91.07;100847.50;5055809;28;20123;-34
2022/01/31 05:19:24;;;;;;;19.30;2.97;;;;;;;5.30;90.37;100845.03;5055449;28;20029;-35
2022/01/31 05:21:49;;;;;;;13.63;2.58;;;;;;;5.37;90.01;100845.91;5055373;28;20485;-35
2022/01/31 05:24:15;;;;;;;14.97;3.40;;;;;;;5.37;89.97;100836.03;5055463;28;20032;-35
2022/01/31 05:26:40;;;;;;;20.37;4.57;;;;;;;5.31;88.46;100822.56;5055020;28;20539;-35
2022/01/31 05:29:06;;;;;;;20.03;3.23;;;;;;;5.42;88.73;100838.94;5055819;28;20458;-35
2022/01/31 05:31:31;;;;;;;11.87;2.50;;;;;;;5.38;88.77;100820.75;5055352;28;20033;-35
2022/01/31 05:33:56;;;;;;;14.20;3.50;;;;;;;5.43;87.28;100827.19;5055493;28;20477;-35
2022/01/31 05:36:22;;;;;;;12.63;2.63;;;;;;;5.42;87.60;100813.97;5055218;28;20461;-35
2022/01/31 05:38:47;;;;;;;11.60;2.53;;;;;;;5.28;88.65;100796.97;5055347;28;20079;-35
2022/01/31 05:41:18;;;;;;;14.17;2.57;;;;;;;5.44;88.42;100814.59;5055231;28;20553;-35
2022/01/31 05:43:44;;;;;;;15.95;2.95;;;;;;;5.40;90.15;100810.66;5055071;28;20021;-35
2022/01/31 05:46:09;;;;;;;15.65;3.25;;;;;;;5.36;90.97;100823.59;5054601;28;20059;-35
2022/01/31 05:48:35;;;;;;;12.10;3.07;;;;;;;5.31;91.83;100819.88;5054560;28;20029;-35
2022/01/31 05:51:06;;;;;;;10.47;3.13;;;;;;;5.17;93.44;100837.72;5055174;28;20041;-35
2022/01/31 05:53:31;;;;;;;12.10;2.58;;;;;;;5.15;94.09;100866.59;5054943;28;20029;-35
2022/01/31 05:55:57;;;;;;;19.37;3.17;;;;;;;4.94;95.54;100863.94;5055411;28;20059;-35
2022/01/31 05:58:23;;;;;;;;;;;;;;;4.90;96.44;100868.84;5055054;28;20037;-34
2022/01/31 06:00:48;;;;;;;10.85;2.15;;;;;;;4.69;98.54;100861.69;5054991;28;19908;-35
2022/01/31 06:03:13;;;;;;;13.20;2.93;;;;;;;4.57;98.82;100855.97;5054406;28;20036;-35
2022/01/31 06:05:39;;;;;;;9.83;2.13;;;;;;;4.46;98.69;100844.97;5055102;28;20040;-35
2022/01/31 06:08:04;;;;;;;8.90;1.80;;;;;;;4.41;99.59;100842.84;5054451;28;20108;-35
2022/01/31 06:10:31;;;;;;;10.52;2.30;;;;;;;4.45;100.00;100848.66;5055159;28;20025;-35
2022/01/31 06:12:57;;;;;;;12.68;2.38;;;;;;;4.42;100.00;100841.00;5054162;28;20025;-35
2022/01/31 06:15:22;;;;;;;11.47;2.50;;;;;;;4.39;100.00;100821.63;5054580;28;20040;-35
2022/01/31 06:17:47;;;;;;;13.67;2.47;;;;;;;4.39;100.00;100835.03;5055085;28;20032;-35
2022/01/31 06:20:13;;;;;;;10.60;3.03;;;;;;;4.40;100.00;100827.81;5054317;28;20036;-35
2022/01/31 06:22:50;;;;;;;11.57;2.83;;;;;;;4.42;100.00;100832.97;5054222;28;20029;-35
2022/01/31 06:25:16;;;;;;;13.50;3.03;;;;;;;4.43;100.00;100831.94;5054874;28;20054;-35
2022/01/31 06:27:41;;;;;;;18.75;3.25;;;;;;;4.41;100.00;100809.91;5054085;28;20036;-35
2022/01/31 06:30:08;;;;;;;10.87;2.43;;;;;;;4.49;100.00;100823.13;5054378;28;20021;-35
2022/01/31 06:32:33;;;;;;;14.45;3.25;;;;;;;4.45;100.00;100820.03;5054091;28;20025;-34
2022/01/31 06:34:58;;;;;;;12.67;3.20;;;;;;;4.51;100.00;100842.53;5054544;28;20420;-34
2022/01/31 06:37:24;;;;;;;19.63;3.77;;;;;;;4.53;99.65;100827.09;5054629;28;20469;-34
2022/01/31 06:39:49;;;;;;;19.23;3.50;;;;;;;4.56;98.82;100826.72;5053971;28;20477;-34
2022/01/31 06:42:15;;;;;;;19.40;3.03;;;;;;;4.56;98.57;100826.72;5054005;28;20037;-34
2022/01/31 06:44:40;;;;;;;18.50;2.50;;;;;;;4.48;98.27;100816.13;5053514;28;20397;-34
2022/01/31 06:47:06;;;;;;;18.17;3.53;;;;;;;4.56;99.41;100834.75;5054020;28;20083;-34
2022/01/31 06:49:31;;;;;;;19.77;3.43;;;;;;;4.55;98.59;100830.44;5054141;28;20039;-34
2022/01/31 06:51:56;;;;;;;14.80;2.73;;;;;;;4.49;98.56;100817.78;5054016;28;20033;-34
2022/01/31 06:54:22;;;;;;;19.23;3.27;;;;;;;4.54;99.40;100823.41;5054083;28;20048;-35
2022/01/31 06:56:48;;;;;;;16.37;3.03;;;;;;;4.57;99.12;100825.69;5053756;28;20028;-35
2022/01/31 06:59:13;;;;;;;;;;;;;;;4.62;98.15;100825.94;5054720;28;20330;-35
2022/01/31 07:01:39;;;;;;;14.48;2.72;;;;;;;4.57;97.77;100829.19;5053440;28;19920;-35
2022/01/31 07:04:04;;;;;;;14.57;3.17;;;;;;;4.57;98.75;100831.06;5053641;28;20075;-35
2022/01/31 07:06:29;;;;;;;19.13;3.60;;;;;;;4.57;97.80;100818.50;5053423;28;20025;-35
2022/01/31 07:08:55;;;;;;;16.43;3.13;;;;;;;4.42;98.89;100804.34;5053056;28;20047;-35
2022/01/31 07:11:26;;;;;;;15.60;3.20;;;;;;;4.49;97.54;100815.97;5053410;28;20472;-34
2022/01/31 07:14:24;;;;;;;15.63;3.78;;;;;;;4.58;97.93;100820.13;5053231;28;20040;-34
2022/01/31 07:16:49;;;;;;;16.42;4.07;;;;;;;4.57;97.74;100814.97;5052845;28;20029;-34
2022/01/31 07:19:14;;;;;;;21.63;4.07;;;;;;;4.51;98.00;100802.38;5052532;28;20040;-34
2022/01/31 07:21:48;;;;;;;23.03;4.10;;;;;;;4.56;97.79;100832.09;5053053;28;20358;-34
2022/01/31 07:26:49;;;;;;;15.35;3.65;;;;;;;4.58;98.43;100841.56;5053061;28;20392;-35
2022/01/31 07:29:15;;;;;;;18.40;4.28;;;;;;;4.36;98.28;100846.09;5053347;28;20028;-35
2022/01/31 07:31:42;;;;;;;20.75;4.38;;;;;;;4.54;99.28;100866.25;5053361;28;20041;-34
2022/01/31 07:34:08;;;;;;;18.20;3.67;;;;;;;4.48;99.91;100854.44;5053195;28;20032;-34
2022/01/31 07:36:34;;;;;;;28.88;5.22;;;;;;;4.47;100.00;100857.31;5052392;28;20049;-34
2022/01/31 07:38:59;;;;;;;;;;;;;;;4.46;100.00;100871.75;5053312;28;20028;-35
2022/01/31 07:41:25;;;;;;;17.02;3.72;;;;;;;4.40;99.88;100849.22;5053125;28;19913;-35
2022/01/31 07:43:50;;;;;;;15.77;3.23;;;;;;;4.34;100.00;100848.16;5053239;28;20029;-35
2022/01/31 07:46:16;;;;;;;13.67;3.23;;;;;;;4.35;100.00;100839.09;5053385;28;20029;-35
2022/01/31 07:48:41;;;;;;;22.27;4.23;;;;;;;4.30;100.00;100838.84;5052535;28;20037;-35
2022/01/31 07:51:08;;;;;;;12.00;3.00;;;;;;;4.29;100.00;100831.81;5053457;28;20405;-35
2022/01/31 07:53:34;;;;;;;19.52;4.10;;;;;;;4.33;100.00;100838.44;5052741;28;20053;-35
2022/01/31 07:56:01;;;;;;;14.35;3.45;;;;;;;4.26;100.00;100818.00;5052992;28;20116;-35
2022/01/31 07:58:26;;;;;;;24.60;5.13;;;;;;;4.37;100.00;100852.28;5052324;28;20477;-35
2022/01/31 08:00:52;;;;;;;15.95;3.55;;;;;;;4.31;100.00;100826.28;5052430;28;20021;-35
2022/01/31 08:03:17;;;;;;;18.83;4.13;;;;;;;4.40;100.00;100841.19;5052272;28;20037;-35
2022/01/31 08:05:43;;;;;;;22.27;5.27;;;;;;;4.38;100.00;100835.19;5051886;28;20114;-35
2022/01/31 08:08:09;;;;;;;21.27;3.92;;;;;;;4.34;100.00;100823.19;5052471;28;20076;-35
2022/01/31 08:10:36;;;;;;;19.08;3.33;;;;;;;4.42;100.00;100846.34;5052522;28;20065;-35
2022/01/31 08:13:04;;;;;;;22.55;4.82;;;;;;;4.38;99.81;100836.03;5052261;28;20139;-35
2022/01/31 08:15:30;;;;;;;27.52;5.10;;;;;;;4.50;98.93;100851.59;5052446;28;20033;-35
2022/01/31 08:17:55;;;;;;;26.02;4.18;;;;;;;4.52;99.22;100860.25;5052821;28;20108;-35
2022/01/31 08:20:21;;;;;;;25.35;4.55;;;;;;;4.48;99.13;100865.16;5053008;28;20043;-35
2022/01/31 08:22:46;;;;;;;21.40;4.23;;;;;;;4.36;99.60;100846.09;5052247;28;20039;-35
2022/01/31 08:25:15;;;;;;;19.43;3.30;;;;;;;4.52;99.68;100869.13;5052414;28;20033;-35
2022/01/31 08:27:49;;;;;;;24.88;4.10;;;;;;;4.53;99.28;100862.75;5052212;28;20119;-34
2022/01/31 08:30:21;;;;;;;15.43;3.65;;;;;;;4.50;99.48;100848.91;5052800;28;20044;-35
2022/01/31 08:32:58;;;;;;;22.27;4.18;;;;;;;4.55;99.56;100849.19;5055894;28;20053;-35
2022/01/31 08:38:08;;;;;;;26.02;5.57;;;;;;;4.55;99.26;100858.03;5056083;28;20095;-35
2022/01/31 08:40:33;;;;;;;23.53;5.10;;;;;;;4.57;99.25;100887.28;5056422;28;20028;-35
2022/01/31 08:42:59;;;;;;;25.90;5.20;;;;;;;4.59;99.46;100878.06;5056025;28;20117;-35
2022/01/31 08:45:24;;;;;;;24.57;4.70;;;;;;;4.57;99.09;100860.50;5056173;28;20055;-35
2022/01/31 08:47:49;;;;;;;28.30;5.17;;;;;;;4.66;98.43;100870.09;5055769;28;20079;-35
2022/01/31 08:50:15;;;;;;;19.97;4.73;;;;;;;4.67;98.88;100865.56;5056617;28;20029;-35
2022/01/31 08:52:40;;;;;;;26.13;5.50;;;;;;;4.62;97.70;100856.25;5056283;28;20388;-35
2022/01/31 08:55:07;;;;;;;20.57;4.93;;;;;;;4.73;97.38;100880.84;5056146;28;20056;-35
2022/01/31 08:57:32;;;;;;;20.42;4.60;;;;;;;4.75;97.57;100890.38;5056258;28;20343;-35
2022/01/31 09:00:00;;;;;;;21.02;4.57;;;;;;;4.75;96.90;100879.66;5056126;28;20086;-35
2022/01/31 09:02:37;;;;;;;22.13;3.30;;;;;;;4.74;97.52;100867.28;5056154;28;20040;-35
2022/01/31 09:05:02;;;;;;;;;;;;;;;4.77;97.15;100874.09;5056991;28;20089;-35
2022/01/31 09:07:28;;;;;;;19.23;3.95;;;;;;;4.73;97.22;100870.13;5055554;28;20357;-35
2022/01/31 09:09:54;;;;;;;22.63;4.00;;;;;;;4.73;98.09;100860.25;5056554;28;20397;-35
2022/01/31 09:12:27;;;;;;;24.90;4.73;;;;;;;4.70;99.11;100892.78;5055650;28;20075;-35
2022/01/31 09:14:52;;;;;;;22.63;4.57;;;;;;;4.63;99.08;100875.81;5056014;28;20111;-35
2022/01/31 09:17:18;;;;;;;26.03;4.73;;;;;;;4.54;98.42;100867.09;5055166;28;20163;-35
2022/01/31 09:19:43;;;;;;;21.67;4.30;;;;;;;4.65;98.15;100879.16;5055492;28;20105;-35
2022/01/31 09:22:08;;;;;;;25.27;5.13;;;;;;;4.66;97.53;100902.22;5055141;28;20205;-35
2022/01/31 09:24:39;;;;;;;26.43;6.03;;;;;;;4.66;98.80;100896.88;5056107;28;20106;-35
2022/01/31 09:27:10;;;;;;;21.33;4.15;;;;;;;4.66;98.82;100888.84;5054955;28;20021;-35
2022/01/31 09:29:36;;;;;;;25.13;4.63;;;;;;;4.59;98.16;100875.38;5055638;28;20571;-34
2022/01/31 09:32:04;;;;;;;31.40;4.80;;;;;;;4.68;98.34;100894.00;5055147;28;20102;-34
2022/01/31 09:34:33;;;;;;;28.83;4.97;;;;;;;4.71;96.88;100904.34;5055451;28;20133;-34
2022/01/31 09:36:59;;;;;;;25.77;5.13;;;;;;;4.72;97.48;100898.78;5055891;28;20087;-35
2022/01/31 09:39:25;;;;;;;20.65;4.80;;;;;;;4.70;98.66;100916.91;5055416;28;20025;-35
2022/01/31 09:41:56;;;;;;;32.25;6.55;;;;;;;4.68;98.02;100926.97;5055266;28;20017;-35
2022/01/31 09:44:39;;;;;;;45.35;8.43;;;;;;;4.64;97.50;100931.91;5054515;28;20393;-35
2022/01/31 09:48:30;;;;;;;33.78;7.95;;;;;;;4.71;97.25;100936.47;5055381;28;20041;-35
2022/01/31 09:50:09;;;;;;;22.98;6.15;;;;;;;4.72;97.99;100928.25;5054583;28;20132;-35
2022/01/31 09:52:35;;;;;;;28.95;6.28;;;;;;;4.67;98.59;100949.41;5054650;28;20025;-35
2022/01/31 09:55:00;;;;;;;27.60;6.13;;;;;;;4.70;97.39;100966.97;5054202;28;20171;-35
2022/01/31 09:57:25;;;;;;;24.83;5.07;;;;;;;4.66;98.81;100947.75;5054741;28;20029;-35
2022/01/31 09:59:51;;;;;;;23.37;5.90;;;;;;;4.63;99.15;100964.19;5054848;28;20024;-34
2022/01/31 10:02:16;;;;;;;24.83;5.00;;;;;;;4.56;99.62;100969.50;5054753;28;20036;-35
2022/01/31 10:04:44;;;;;;;23.83;5.63;;;;;;;4.53;100.00;100974.38;5055210;28;20025;-35
2022/01/31 10:07:10;;;;;;;22.02;5.28;;;;;;;4.50;100.00;100961.41;5055011;28;20279;-35
2022/01/31 10:09:35;;;;;;;28.15;5.55;;;;;;;4.49;100.00;100968.59;5055342;28;20032;-35
2022/01/31 10:12:10;;;;;;;31.03;5.47;;;;;;;4.51;100.00;100976.44;5054441;28;20330;-35
2022/01/31 10:17:29;;;;;;;28.45;6.25;;;;;;;4.49;98.35;100949.84;5054461;28;20039;-35
2022/01/31 10:19:58;;;;;;;40.08;8.75;;;;;;;4.61;98.22;100979.66;5054929;28;20060;-35
2022/01/31 10:22:25;;;;;;;38.45;8.07;;;;;;;4.47;97.58;100957.22;5054270;28;20028;-35
2022/01/31 10:24:53;;;;;;;39.83;8.15;;;;;;;4.61;96.97;100977.78;5054250;28;20070;-35
2022/01/31 10:27:21;;;;;;;41.90;8.05;;;;;;;4.72;96.18;100999.75;5054216;28;20029;-35
2022/01/31 10:29:48;;;;;;;29.70;8.48;;;;;;;4.68;95.28;101010.00;5054347;28;20052;-35
2022/01/31 10:32:29;;;;;;;38.10;8.23;;;;;;;4.77;94.90;101000.00;5053685;28;20481;-35
2022/01/31 10:34:59;;;;;;;42.30;8.30;;;;;;;4.75;94.67;101010.94;5053718;28;20025;-35
2022/01/31 10:37:26;;;;;;;43.45;9.00;;;;;;;4.82;94.85;101032.44;5054554;28;20041;-34
2022/01/31 10:45:35;;;;;;;37.75;8.45;;;;;;;4.79;93.19;101008.72;5054334;28;20499;-34
2022/01/31 10:53:54;;;;;;;39.60;7.90;;;;;;;4.90;93.12;101033.16;5053868;28;20076;-35
2022/01/31 10:56:19;;;;;;;36.22;8.10;;;;;;;4.70;94.00;100999.94;5053121;28;20425;-35
2022/01/31 10:58:58;;;;;;;34.40;7.05;;;;;;;4.93;92.31;101036.47;5053704;28;20040;-35
2022/01/31 11:01:25;;;;;;;34.00;6.63;;;;;;;4.90;92.30;101033.16;5054130;28;20084;-35
2022/01/31 11:03:51;;;;;;;34.13;7.03;;;;;;;4.91;92.63;101039.34;5053446;28;20056;-35
2022/01/31 11:06:17;;;;;;;40.50;7.47;;;;;;;4.81;92.59;101038.81;5053938;28;20029;-35
2022/01/31 11:08:42;;;;;;;34.83;7.15;;;;;;;4.81;93.01;101049.53;5053386;28;20491;-35
2022/01/31 11:11:07;;;;;;;33.53;6.43;;;;;;;4.84;94.05;101060.72;5052726;28;20032;-35
2022/01/31 11:13:35;;;;;;;38.40;7.53;;;;;;;4.82;93.52;101065.41;5053292;28;20028;-35
2022/01/31 11:16:00;;;;;;;41.38;7.05;;;;;;;4.80;94.39;101066.63;5053572;28;20036;-35
2022/01/31 11:18:31;;;;;;;31.53;6.40;;;;;;;4.79;94.61;101081.06;5053194;28;20029;-35
2022/01/31 11:21:05;;;;;;;34.40;7.30;;;;;;;4.72;94.97;101064.03;5053425;28;20021;-35
2022/01/31 11:23:38;;;;;;;29.52;6.35;;;;;;;4.72;95.61;101078.25;5053192;28;20028;-35
2022/01/31 11:26:06;;;;;;;26.70;6.13;;;;;;;4.72;95.82;101083.63;5054121;28;20021;-35
2022/01/31 11:28:33;;;;;;;38.75;7.03;;;;;;;4.54;96.24;101064.44;5053120;28;20052;-35
2022/01/31 11:31:01;;;;;;;25.63;5.43;;;;;;;4.69;96.73;101096.59;5053081;28;20025;-35
2022/01/31 11:33:28;;;;;;;34.53;7.20;;;;;;;4.58;96.73;101071.91;5052973;28;20368;-35
2022/01/31 11:35:54;;;;;;;31.98;6.78;;;;;;;4.64;97.14;101097.97;5052833;28;20025;-35
2022/01/31 11:38:20;;;;;;;;;;;;;;;4.71;97.23;101067.75;5053988;28;20079;-35
2022/01/31 11:40:46;;;;;;;37.10;7.80;;;;;;;4.63;97.51;101084.75;5053095;28;19908;-35
2022/01/31 11:43:12;;;;;;;24.73;5.82;;;;;;;4.60;98.05;101101.19;5052700;28;20028;-35
2022/01/31 11:45:39;;;;;;;;;;;;;;;4.66;98.19;101095.09;5053724;28;20380;-35
2022/01/31 11:48:26;;;;;;;33.65;7.38;;;;;;;4.62;99.43;101096.47;5052649;28;19908;-35
2022/01/31 11:50:54;;;;;;;36.83;7.32;;;;;;;4.62;99.47;101094.63;5052973;28;20116;-35